Terminal Aerodrome Forecast
Issued by NWS

Home | Current Version | Previous Version | Text Only | Print | Product List | Glossary Off
Versions: 1 2 3 4 5 6 7 8 9 10 11 12 13 14 15

057
FTUS42 KMHX 242334
TAFOAJ
TAF
KOAJ 242334Z 2500/2524 21010KT P6SM SKC
     FM251000 VRB03KT 5SM BR SKC
     FM251300 21007KT P6SM SCT025
     FM251800 23010KT P6SM BKN045
     FM252300 18006KT P6SM FEW045
      AMD LTD TO CLD VIS AND WIND=

USA.gov is the U.S. government's official web portal to all federal, state and local government web resources and services.